Disclaimer

Please do not use the information listed here in-flight or in-navigation, as they are not provided to us by the airports but are provided by volunteers, so they might be outdated.

Search


Regions


Airport information page

Radio informations:
Tower (TWR) - 118.15 MHz

Airport informations:
Latitude: 50° 36' 12.59" N
Longitude: 030° 11' 30.96" E
Elevation: 517 feet - 158 meters
Operating hours: N/A
Operating agency: Civil government, landing fees and diplomatic clearance may be required
Timezone: UTC+2(+3DT)
Fuel: N/A

Runway information:
15/33 - 11483 x 184 feet< - >3500 x 56 meters

Recent METARs:
UKKM 192030Z AUTO 04004MPS 350V060 9999 // NSC M01/M04 Q1025
UKKM 192030Z AUTO 04004MPS 350V060 9999 // NSC M01/M04 Q1025
UKKM 192100Z AUTO 04004MPS 360V070 9999 // NSC M01/M04 Q1025

Airport on the map: